Impacts METAR Board
IDs:

KSEA - Seattle-Tacoma Intl, WA, US

Updated at: 1100 UTC 09 Jul 2020
Potential Impact None Slight Moderate High
Time 08/23Z 09/00Z 09/01Z 09/02Z 09/03Z 09/04Z 09/05Z 09/06Z 09/07Z 09/08Z 09/09Z 09/10Z 09/11Z
Temp72 73 72 72 69 66 64 60 59 62 60 59 59
Dewpt50 50 51 51 51 51 53 52 53 52 53 54 54
Altim30.07 30.06 30.04 30.03 30.03 30.03 30.03 30.03 30.03 30.02 30.03 30.02 30.01
VIS10 10 10 10 10 10 10 10 10 10 10 10 10
CIG250 250 250 250 -- 250 200 200 170 180 46 43 42
CoverBKNBKNBKNBKNSCTBKNBKNBKNBKNBKNOVCOVCOVC
FltCatVFRVFRVFRVFRVFRVFRVFRVFRVFRVFRVFRVFRVFR
WX--------------------------
WDir230250270230270290360300300300200220
WSpd7 7 6 5 6 3 4 5 3 7 0 3 4
WGst-- -- -- -- -- -- -- -- -- -- -- -- --
Raw hourly METARs
KSEA 082253Z 23007KT 10SM FEW035 SCT060 BKN250 22/10 A3007 RMK AO2 SLP188 T02220100
KSEA 082353Z 25007KT 210V280 10SM SCT035 BKN250 23/10 A3006 RMK AO2 SLP183 T02280100 10228 20172 58013
KSEA 090053Z 27006KT 10SM SCT035 BKN250 22/11 A3004 RMK AO2 SLP178 T02220106
KSEA 090153Z 23005KT 10SM SCT035 BKN250 22/11 A3003 RMK AO2 SLP174 T02220106
KSEA 090253Z 27006KT 10SM FEW040 SCT250 21/11 A3003 RMK AO2 SLP174 T02060106 56010
KSEA 090353Z 29003KT 10SM FEW040 SCT140 BKN250 19/11 A3003 RMK AO2 SLP175 T01890106
KSEA 090453Z 36004KT 10SM FEW040 FEW140 BKN200 18/12 A3003 RMK AO2 SLP176 T01780117
KSEA 090553Z 30005KT 10SM BKN200 16/11 A3003 RMK AO2 SLP176 T01560111 10228 20156 51002
KSEA 090653Z 30003KT 10SM BKN170 15/12 A3003 RMK AO2 SLP175 T01500117
KSEA 090753Z 03007KT 10SM FEW090 BKN180 17/11 A3002 RMK AO2 SLP170 T01670111 402280133
KSEA 090853Z 00000KT 10SM OVC046 16/12 A3003 RMK AO2 SLP172 T01560117 55003
KSEA 090953Z 20003KT 10SM OVC043 15/12 A3002 RMK AO2 SLP169 T01500122
KSEA 091053Z 22004KT 10SM OVC042 15/12 A3001 RMK AO2 SLP167 T01500122



Page loaded:  11:30 UTC  |   04:30 AM Pacific  |   05:30 AM Mountain  |   06:30 AM Central  |   07:30 AM Eastern

 

ADVISORIES

FORECASTS

FORECASTS

OBSERVATIONS

USER TOOLS

ABOUT US